createdAt,value
2022-08-19T00:01:28.694Z,15.20
2022-08-19T00:04:02.299Z,16.33
2022-08-19T00:06:30.448Z,15.75
2022-08-19T00:08:58.650Z,15.85
2022-08-19T00:11:27.290Z,17.20
2022-08-19T00:13:56.316Z,14.98
2022-08-19T00:16:25.252Z,17.80
2022-08-19T00:18:56.895Z,16.02
2022-08-19T00:21:27.605Z,15.80
2022-08-19T00:23:55.548Z,17.25
2022-08-19T00:26:22.017Z,15.70
2022-08-19T00:28:48.486Z,19.63
2022-08-19T00:31:14.892Z,18.20
2022-08-19T00:33:42.187Z,16.52
2022-08-19T00:36:10.253Z,18.40
2022-08-19T00:38:38.450Z,18.73
2022-08-19T00:41:06.309Z,17.60
2022-08-19T00:43:33.503Z,18.73
2022-08-19T00:45:59.942Z,17.42
2022-08-19T00:48:26.449Z,21.70
2022-08-19T00:50:55.135Z,18.90
2022-08-19T00:53:30.439Z,19.08
2022-08-19T00:56:00.791Z,17.63
2022-08-19T00:58:30.991Z,19.85
2022-08-19T01:00:57.458Z,19.25
2022-08-19T01:03:24.884Z,19.23
2022-08-19T01:05:54.949Z,19.33
2022-08-19T01:08:22.127Z,18.77
2022-08-19T01:10:57.084Z,17.98
2022-08-19T01:13:26.808Z,19.90
2022-08-19T01:15:58.880Z,20.15
2022-08-19T01:18:27.439Z,16.58
2022-08-19T01:20:57.189Z,19.02
2022-08-19T01:23:43.208Z,18.33
2022-08-19T01:26:22.613Z,19.48
2022-08-19T01:28:57.429Z,18.70
2022-08-19T01:31:32.701Z,19.50
2022-08-19T01:34:00.504Z,18.50
2022-08-19T01:36:31.831Z,20.30
2022-08-19T01:39:00.349Z,18.92
2022-08-19T01:41:27.164Z,19.88
2022-08-19T01:44:09.883Z,17.60
2022-08-19T01:46:41.995Z,17.67
2022-08-19T01:49:09.077Z,17.77
2022-08-19T01:51:39.635Z,18.83
2022-08-19T01:54:07.350Z,19.45
2022-08-19T01:56:33.812Z,18.65
2022-08-19T01:59:04.172Z,16.73
2022-08-19T02:01:32.833Z,17.45
2022-08-19T02:04:01.069Z,18.73
2022-08-19T02:06:28.764Z,19.92
2022-08-19T02:08:57.221Z,19.70
2022-08-19T02:11:34.283Z,19.27
2022-08-19T02:14:03.014Z,20.38
2022-08-19T02:16:29.830Z,19.33
2022-08-19T02:18:56.248Z,19.67
2022-08-19T02:21:24.420Z,17.67
2022-08-19T02:23:51.279Z,19.98
2022-08-19T02:26:19.111Z,18.45
2022-08-19T02:28:45.887Z,20.48
2022-08-19T02:31:15.589Z,18.13
2022-08-19T02:33:42.574Z,18.67
2022-08-19T02:36:10.287Z,16.40
2022-08-19T02:38:37.928Z,20.00
2022-08-19T02:41:10.225Z,17.45
2022-08-19T02:43:38.023Z,18.00
2022-08-19T02:46:21.921Z,17.20
2022-08-19T02:48:50.016Z,16.30
2022-08-19T02:51:21.934Z,17.83
2022-08-19T02:53:48.566Z,17.70
2022-08-19T02:56:15.103Z,17.95
2022-08-19T02:58:42.355Z,18.17
2022-08-19T03:01:11.382Z,19.27
2022-08-19T03:03:38.620Z,17.60
2022-08-19T03:06:14.184Z,17.67
2022-08-19T03:08:43.352Z,17.25
2022-08-19T03:11:31.617Z,18.83
2022-08-19T03:16:27.401Z,18.60
2022-08-19T03:18:55.047Z,18.88
2022-08-19T03:21:27.572Z,19.80
2022-08-19T03:23:59.740Z,19.27
2022-08-19T03:26:26.149Z,19.10
2022-08-19T03:28:58.195Z,18.90
2022-08-19T03:31:44.644Z,21.13
2022-08-19T03:34:19.243Z,20.83
2022-08-19T03:36:46.711Z,20.27
2022-08-19T03:39:13.715Z,21.00
2022-08-19T03:41:45.523Z,21.17
2022-08-19T03:44:19.424Z,20.80
2022-08-19T03:46:48.856Z,20.27
2022-08-19T03:49:15.755Z,20.33
2022-08-19T03:51:45.800Z,20.60
2022-08-19T03:54:15.591Z,21.67
2022-08-19T03:56:44.128Z,22.77
2022-08-19T03:59:14.323Z,21.58
2022-08-19T04:01:41.129Z,23.45
2022-08-19T04:04:07.650Z,19.02
2022-08-19T04:06:39.811Z,21.50
2022-08-19T04:09:10.478Z,21.80
2022-08-19T04:11:44.624Z,22.50
2022-08-19T04:14:15.278Z,23.15
2022-08-19T04:16:44.625Z,21.75
2022-08-19T04:19:12.035Z,21.52
2022-08-19T04:21:38.725Z,20.40
2022-08-19T04:24:05.527Z,21.77
2022-08-19T04:26:34.957Z,22.80
2022-08-19T04:29:06.564Z,19.60
2022-08-19T04:31:38.576Z,21.05
2022-08-19T04:34:07.580Z,21.27
2022-08-19T04:36:36.405Z,19.40
2022-08-19T04:41:51.730Z,23.17
2022-08-19T04:44:19.160Z,19.80
2022-08-19T04:46:51.223Z,18.95
2022-08-19T04:49:23.428Z,24.58
2022-08-19T04:51:52.161Z,21.92
2022-08-19T04:54:38.460Z,19.35
2022-08-19T04:57:09.305Z,20.75
2022-08-19T04:59:37.289Z,20.70
2022-08-19T05:02:05.242Z,19.88
2022-08-19T05:04:32.699Z,18.63
2022-08-19T05:07:01.120Z,19.73
2022-08-19T05:09:52.644Z,19.52
2022-08-19T05:12:15.612Z,20.17
2022-08-19T05:14:42.114Z,20.42
2022-08-19T05:17:26.552Z,22.80
2022-08-19T05:20:13.829Z,31.80
2022-08-19T05:22:40.748Z,22.50
2022-08-19T05:25:13.016Z,21.30
2022-08-19T05:27:41.192Z,19.55
2022-08-19T05:30:08.291Z,20.13
2022-08-19T05:32:34.830Z,22.90
2022-08-19T05:35:01.434Z,19.73
2022-08-19T05:37:28.367Z,17.17
2022-08-19T05:39:55.649Z,16.92
2022-08-19T05:42:23.629Z,17.95
2022-08-19T05:44:51.111Z,17.27
2022-08-19T05:47:20.445Z,18.15
2022-08-19T05:49:47.521Z,17.88
2022-08-19T05:52:18.562Z,17.77
2022-08-19T05:54:50.965Z,18.48
2022-08-19T05:57:20.415Z,17.45
2022-08-19T05:59:49.159Z,17.35
2022-08-19T06:02:15.723Z,17.00
2022-08-19T06:04:43.625Z,18.25
2022-08-19T06:07:12.254Z,17.45
2022-08-19T06:09:39.731Z,16.70
2022-08-19T06:12:07.246Z,17.67
2022-08-19T06:14:35.631Z,18.50
2022-08-19T06:17:07.493Z,17.50
2022-08-19T06:19:34.614Z,17.25
2022-08-19T06:22:07.761Z,17.02
2022-08-19T06:24:34.148Z,15.90
2022-08-19T06:27:02.489Z,17.23
2022-08-19T06:29:30.195Z,16.48
2022-08-19T06:31:58.876Z,21.90
2022-08-19T09:01:13.574Z,8.13
2022-08-19T09:03:43.104Z,6.43
2022-08-19T09:06:19.656Z,7.03
2022-08-19T09:08:56.900Z,7.63
2022-08-19T09:11:43.038Z,7.18
2022-08-19T09:14:47.339Z,6.50
2022-08-19T09:17:10.708Z,7.70
2022-08-19T09:19:53.431Z,7.57
2022-08-19T09:22:25.804Z,11.55
2022-08-19T09:24:54.031Z,7.82
2022-08-19T09:27:21.787Z,6.80
2022-08-19T09:29:49.888Z,10.35
2022-08-19T09:32:26.452Z,7.88
2022-08-19T09:34:56.286Z,8.82
2022-08-19T09:37:23.291Z,8.50
2022-08-19T09:39:51.923Z,9.02
2022-08-19T09:42:30.008Z,10.02
2022-08-19T09:44:57.107Z,6.97
2022-08-19T09:47:26.705Z,8.43
2022-08-19T09:49:53.110Z,7.10
2022-08-19T09:52:19.529Z,7.55
2022-08-19T09:54:45.869Z,8.20
2022-08-19T09:57:18.460Z,32.60
2022-08-19T09:59:45.764Z,9.45
2022-08-19T10:02:12.818Z,8.23
2022-08-19T10:05:05.496Z,5.72
2022-08-19T10:07:36.507Z,8.77
2022-08-19T10:10:07.747Z,6.25
2022-08-19T10:12:34.970Z,7.35
2022-08-19T10:15:02.358Z,8.45
2022-08-19T10:17:31.615Z,6.10
2022-08-19T10:20:00.742Z,7.18
2022-08-19T10:22:27.439Z,6.95
2022-08-19T10:24:54.533Z,8.20
2022-08-19T10:27:21.510Z,7.25
2022-08-19T10:29:48.729Z,7.28
2022-08-19T10:32:15.574Z,8.35
2022-08-19T10:34:48.581Z,8.57
2022-08-19T10:37:28.924Z,7.93
2022-08-19T10:39:57.893Z,9.02
2022-08-19T10:42:24.763Z,11.88
2022-08-19T10:44:51.849Z,8.73
2022-08-19T10:47:25.005Z,9.95
2022-08-19T10:50:12.761Z,9.73
2022-08-19T10:52:49.865Z,9.07
2022-08-19T10:55:38.551Z,10.00
2022-08-19T10:58:05.466Z,10.98
2022-08-19T11:00:32.364Z,10.75
2022-08-19T11:02:58.765Z,11.13
2022-08-19T11:05:25.172Z,8.10
2022-08-19T11:07:52.491Z,10.77
2022-08-19T11:10:21.884Z,8.35
2022-08-19T11:12:49.334Z,10.23
2022-08-19T11:15:16.338Z,8.30
2022-08-19T11:17:44.345Z,9.02
2022-08-19T11:20:13.852Z,9.60
2022-08-19T11:22:41.919Z,10.35
2022-08-19T11:25:11.597Z,9.32
2022-08-19T11:27:40.700Z,8.43
2022-08-19T11:30:08.516Z,9.65
2022-08-19T11:32:40.079Z,8.00
2022-08-19T11:35:06.963Z,8.85
2022-08-19T11:37:38.887Z,9.35
2022-08-19T11:40:07.061Z,8.45
2022-08-19T11:42:52.201Z,6.63
2022-08-19T11:45:18.874Z,8.65
2022-08-19T11:47:45.350Z,8.82
2022-08-19T11:50:11.746Z,9.18
2022-08-19T11:52:38.175Z,7.70
2022-08-19T11:55:06.151Z,9.18
2022-08-19T11:57:32.723Z,9.13
2022-08-19T11:59:59.102Z,7.93
2022-08-19T12:02:26.382Z,8.70
2022-08-19T12:04:52.811Z,9.38
2022-08-19T12:07:19.166Z,8.77
2022-08-19T12:09:46.054Z,8.43
2022-08-19T12:12:15.450Z,8.43
2022-08-19T12:14:41.818Z,9.45
2022-08-19T12:17:09.917Z,9.88
2022-08-19T12:19:38.253Z,9.48
2022-08-19T12:22:06.323Z,9.77
2022-08-19T12:24:33.475Z,7.82
2022-08-19T12:27:03.073Z,7.43
2022-08-19T12:29:30.566Z,8.43
2022-08-19T12:32:01.955Z,7.25
2022-08-19T12:34:33.253Z,7.95
2022-08-19T12:37:02.834Z,7.82
2022-08-19T12:39:29.202Z,6.03
2022-08-19T12:41:55.622Z,6.13
2022-08-19T12:44:28.731Z,6.53
2022-08-19T12:46:56.264Z,5.38
2022-08-19T12:49:52.007Z,5.32
2022-08-19T12:52:10.025Z,6.25
2022-08-19T12:54:37.799Z,6.65
2022-08-19T12:57:09.308Z,6.43
2022-08-19T12:59:37.474Z,5.57
2022-08-19T13:02:08.427Z,5.90
2022-08-19T13:04:41.568Z,4.93
2022-08-19T13:07:09.287Z,5.18
2022-08-19T13:09:36.018Z,6.65
2022-08-19T13:12:04.459Z,5.28
2022-08-19T13:14:32.378Z,5.60
2022-08-19T13:17:00.161Z,6.60
2022-08-19T13:19:27.392Z,6.85
2022-08-19T13:22:00.280Z,5.22
2022-08-19T13:24:29.468Z,5.22
2022-08-19T13:27:01.803Z,5.55
2022-08-19T13:29:46.818Z,5.13
2022-08-19T13:32:31.903Z,5.50
2022-08-19T13:34:58.324Z,5.30
2022-08-19T13:37:41.843Z,5.22
2022-08-19T13:40:13.702Z,5.40
2022-08-19T13:42:41.016Z,5.70
2022-08-19T13:45:08.118Z,5.63
2022-08-19T13:47:35.596Z,41.35
2022-08-19T13:50:05.647Z,5.20
2022-08-19T13:52:32.204Z,6.05
2022-08-19T13:54:58.971Z,6.28
2022-08-19T13:57:25.621Z,5.40
2022-08-19T13:59:52.129Z,5.97
2022-08-19T14:02:18.561Z,6.63
2022-08-19T14:04:45.312Z,5.72
2022-08-19T14:07:11.741Z,5.88
2022-08-19T14:09:38.122Z,5.60
2022-08-19T14:12:05.609Z,5.70
2022-08-19T14:14:32.396Z,5.55
2022-08-19T14:16:58.874Z,5.25
2022-08-19T14:19:25.265Z,5.53
2022-08-19T14:21:58.434Z,4.07
2022-08-19T14:26:51.711Z,3.67
2022-08-19T14:29:18.464Z,5.60
2022-08-19T14:31:45.204Z,3.65
2022-08-19T14:34:13.536Z,4.03
2022-08-19T14:36:40.037Z,5.25
2022-08-19T14:39:06.477Z,4.57
2022-08-19T14:41:33.586Z,4.30
2022-08-19T14:44:01.167Z,5.18
2022-08-19T14:46:29.615Z,5.07
2022-08-19T14:48:56.675Z,5.70
2022-08-19T14:51:25.405Z,5.25
2022-08-19T14:53:52.265Z,4.20
2022-08-19T14:56:22.666Z,3.85
2022-08-19T14:58:52.374Z,4.32
2022-08-19T15:01:21.447Z,4.70
2022-08-19T15:03:48.998Z,5.75
2022-08-19T15:06:15.939Z,5.10
2022-08-19T15:08:44.028Z,5.28
2022-08-19T15:11:13.161Z,4.55
2022-08-19T15:13:40.437Z,5.70
2022-08-19T15:16:07.485Z,5.85
2022-08-19T15:18:46.163Z,4.32
2022-08-19T15:21:15.210Z,6.68
2022-08-19T15:23:41.787Z,5.88
2022-08-19T15:26:14.385Z,5.65
2022-08-19T15:28:43.170Z,5.00
2022-08-19T15:31:09.765Z,4.63
2022-08-19T15:33:52.338Z,4.38
2022-08-19T15:36:18.912Z,4.93
2022-08-19T15:38:46.194Z,5.05
2022-08-19T15:41:25.546Z,4.60
2022-08-19T15:43:55.971Z,4.90
2022-08-19T15:46:25.569Z,4.50
2022-08-19T15:48:55.988Z,5.03
2022-08-19T15:51:28.679Z,5.20
2022-08-19T15:56:25.591Z,4.95
2022-08-19T15:59:12.109Z,4.85
2022-08-19T16:01:56.877Z,4.10
2022-08-19T16:04:42.076Z,3.85
2022-08-19T16:07:12.687Z,4.60
2022-08-19T16:09:39.063Z,3.83
2022-08-19T16:12:06.093Z,4.75
2022-08-19T16:14:35.222Z,4.22
2022-08-19T16:17:01.978Z,4.68
2022-08-19T16:19:28.375Z,4.15
2022-08-19T16:21:56.576Z,4.32
2022-08-19T16:24:28.794Z,5.25
2022-08-19T16:26:56.036Z,5.78
2022-08-19T16:29:33.545Z,4.75
2022-08-19T16:32:02.927Z,4.55
2022-08-19T16:34:30.535Z,5.68
2022-08-19T16:36:57.599Z,5.10
2022-08-19T16:39:24.240Z,4.18
2022-08-19T16:41:51.681Z,5.28
2022-08-19T16:44:20.653Z,5.53
2022-08-19T16:46:52.569Z,5.63
2022-08-19T16:49:53.492Z,5.88
2022-08-19T16:52:16.819Z,5.55
2022-08-19T16:54:43.978Z,4.10
2022-08-19T16:57:12.267Z,4.80
2022-08-19T16:59:48.298Z,6.18
2022-08-19T17:02:17.414Z,6.60
2022-08-19T17:04:43.852Z,6.28
2022-08-19T17:07:10.711Z,5.75
2022-08-19T17:09:38.029Z,5.13
2022-08-19T17:12:05.414Z,4.60
2022-08-19T17:14:31.909Z,5.15
2022-08-19T17:16:58.405Z,5.05
2022-08-19T17:19:24.981Z,5.82
2022-08-19T17:21:51.667Z,5.53
2022-08-19T17:24:18.067Z,5.70
2022-08-19T17:26:44.539Z,5.50
2022-08-19T17:29:11.118Z,5.20
2022-08-19T17:31:38.093Z,6.47
2022-08-19T17:34:04.710Z,4.90
2022-08-19T17:36:32.753Z,5.60
2022-08-19T17:39:00.917Z,5.43
2022-08-19T17:41:28.607Z,7.60
2022-08-19T17:43:55.267Z,7.28
2022-08-19T17:46:21.903Z,6.32
2022-08-19T17:48:52.959Z,7.00
2022-08-19T17:51:25.714Z,6.50
2022-08-19T17:53:53.793Z,6.28
2022-08-19T17:56:21.199Z,6.25
2022-08-19T17:58:57.847Z,7.28
2022-08-19T18:01:34.136Z,7.40
2022-08-19T18:06:41.633Z,7.45
2022-08-19T18:09:16.647Z,5.82
2022-08-19T18:11:44.639Z,6.20
2022-08-19T18:14:15.234Z,6.97
2022-08-19T18:16:41.655Z,7.88
2022-08-19T18:19:08.927Z,8.15
2022-08-19T18:21:35.999Z,6.72
2022-08-19T18:24:02.523Z,8.30
2022-08-19T18:26:30.099Z,7.88
2022-08-19T18:28:57.106Z,6.93
2022-08-19T18:31:23.622Z,6.75
2022-08-19T18:33:52.451Z,7.30
2022-08-19T18:36:37.448Z,7.30
2022-08-19T18:39:23.128Z,6.25
2022-08-19T18:42:08.591Z,7.20
2022-08-19T18:44:59.257Z,7.68
2022-08-19T18:47:44.639Z,8.38
2022-08-19T18:53:02.890Z,7.50
2022-08-19T18:55:29.308Z,7.60
2022-08-19T18:57:56.086Z,7.10
2022-08-19T19:00:22.649Z,8.65
2022-08-19T19:02:49.987Z,8.75
2022-08-19T19:05:16.729Z,6.80
2022-08-19T19:07:43.077Z,8.57
2022-08-19T19:10:09.580Z,7.07
2022-08-19T19:12:42.164Z,7.07
2022-08-19T19:18:00.928Z,8.32
2022-08-19T19:20:36.307Z,7.80
2022-08-19T19:23:03.772Z,7.50
2022-08-19T19:25:50.406Z,8.60
2022-08-19T19:28:16.679Z,7.28
2022-08-19T19:30:43.092Z,6.88
2022-08-19T19:33:09.535Z,8.02
2022-08-19T19:35:35.935Z,7.72
2022-08-19T19:38:02.404Z,8.43
2022-08-19T19:40:29.281Z,7.18
2022-08-19T19:42:55.805Z,8.57
2022-08-19T19:45:22.803Z,6.95
2022-08-19T19:47:49.997Z,9.05
2022-08-19T19:50:17.688Z,9.20
2022-08-19T19:52:46.252Z,8.52
2022-08-19T19:55:17.692Z,7.80
2022-08-19T19:57:48.629Z,9.52
2022-08-19T20:00:18.355Z,8.35
2022-08-19T20:02:49.605Z,8.60
2022-08-19T20:05:16.996Z,8.65
2022-08-19T20:08:02.117Z,8.68
2022-08-19T20:10:28.500Z,8.77
2022-08-19T20:12:55.529Z,8.23
2022-08-19T20:15:22.487Z,8.30
2022-08-19T20:17:48.966Z,9.80
2022-08-19T20:20:17.926Z,10.38
2022-08-19T20:22:47.322Z,9.07
2022-08-19T20:25:16.776Z,10.95
2022-08-19T20:27:43.872Z,9.15
2022-08-19T20:30:19.439Z,9.75
2022-08-19T20:32:47.225Z,10.18
2022-08-19T20:35:16.275Z,9.30
2022-08-19T20:37:42.711Z,9.60
2022-08-19T20:40:10.879Z,11.00
2022-08-19T20:42:40.535Z,8.40
2022-08-19T20:45:28.038Z,8.45
2022-08-19T20:48:03.343Z,9.45
2022-08-19T20:50:32.339Z,9.63
2022-08-19T20:52:59.312Z,8.45
2022-08-19T20:55:27.181Z,10.18
2022-08-19T20:57:53.925Z,9.73
2022-08-19T21:00:20.726Z,9.00
2022-08-19T21:02:47.104Z,8.23
2022-08-19T21:05:13.822Z,9.13
2022-08-19T21:07:40.761Z,8.10
2022-08-19T21:10:07.906Z,8.05
2022-08-19T21:12:34.745Z,8.48
2022-08-19T21:15:01.362Z,9.50
2022-08-19T21:17:27.845Z,8.73
2022-08-19T21:19:54.244Z,9.73
2022-08-19T21:22:20.715Z,9.43
2022-08-19T21:24:47.192Z,8.93
2022-08-19T21:27:14.171Z,9.38
2022-08-19T21:29:42.048Z,8.32
2022-08-19T21:32:11.023Z,8.05
2022-08-19T21:34:40.719Z,9.45
2022-08-19T21:37:18.986Z,9.40
2022-08-19T21:39:53.242Z,7.97
2022-08-19T21:42:21.424Z,9.88
2022-08-19T21:44:47.942Z,8.98
2022-08-19T21:47:14.556Z,13.70
2022-08-19T21:49:41.251Z,7.30
2022-08-19T21:52:08.419Z,9.88
2022-08-19T21:54:38.146Z,8.88
2022-08-19T21:57:10.646Z,8.85
2022-08-19T21:59:43.891Z,7.07
2022-08-19T22:02:21.014Z,7.32
2022-08-19T22:04:50.706Z,8.05
2022-08-19T22:07:18.063Z,8.00
2022-08-19T22:09:46.028Z,7.82
2022-08-19T22:12:32.934Z,7.35
2022-08-19T22:15:00.544Z,7.55
2022-08-19T22:17:27.671Z,7.43
2022-08-19T22:19:55.887Z,7.78
2022-08-19T22:22:31.471Z,9.55
2022-08-19T22:25:12.333Z,7.22
2022-08-19T22:27:39.251Z,8.40
2022-08-19T22:30:11.067Z,7.78
2022-08-19T22:32:37.855Z,9.45
2022-08-19T22:35:08.221Z,9.23
2022-08-19T22:37:34.878Z,8.15
2022-08-19T22:40:05.539Z,9.85
2022-08-19T22:42:33.283Z,9.52
2022-08-19T22:45:00.485Z,8.75
2022-08-19T22:47:30.198Z,8.15
2022-08-19T22:50:00.580Z,8.30
2022-08-19T22:52:27.737Z,8.73
2022-08-19T22:54:58.895Z,7.65
2022-08-19T22:57:25.616Z,8.18
2022-08-19T22:59:53.881Z,8.00
2022-08-19T23:02:28.898Z,9.35
2022-08-19T23:04:55.837Z,8.70
2022-08-19T23:07:23.792Z,8.68
2022-08-19T23:09:50.551Z,9.27
2022-08-19T23:12:26.436Z,7.85
2022-08-19T23:14:52.821Z,9.00
2022-08-19T23:17:20.560Z,8.05
2022-08-19T23:19:47.602Z,8.38
2022-08-19T23:22:18.566Z,9.02
2022-08-19T23:24:45.131Z,9.23
2022-08-19T23:27:30.010Z,7.85
2022-08-19T23:30:15.316Z,9.63
2022-08-19T23:32:41.762Z,10.60
2022-08-19T23:35:09.122Z,7.70
2022-08-19T23:37:37.067Z,7.80
2022-08-19T23:40:05.823Z,9.23
2022-08-19T23:42:32.739Z,11.25
2022-08-19T23:45:06.913Z,9.15
2022-08-19T23:47:35.230Z,9.18
2022-08-19T23:50:05.929Z,9.93
2022-08-19T23:52:34.682Z,8.02
2022-08-19T23:55:02.361Z,9.23
2022-08-19T23:57:28.767Z,9.00
2022-08-19T23:59:55.222Z,7.63
